PWSweather.com
Personal Weather Stations
Station Observations
PRATO
PratoIT 59100

PratoIT 59100

Lat: 43.8956799, Lon: 11.0845155

Elevation: 164

Station Type: Davis Vantage Vue

http://www.meteoprato.it

Latest ConditionsUpdated 5:05:01 AM GMT+01:01 Wednesday, Aug 21, 2019
Currently Today's Max Today's Min Today's Average
Temperature 70.1°F21.2°C 74.2°F23.4°C 69.8°F21.0°C 72.0°F22.2°C
Dew Point 54.2°F12.3°C 55.6°F13.1°C 53.8°F12.1°C 54.6°F12.6°C
Winds 1.3 mph NE2.1 kmh NE 3.0 mph -4.8 kmh - - 1.3 mph 2.1 kmh
Wind Gusts 5.0 mph8.0 kmh 7.0 mph11.3 kmh - -
Humidity 57% 60% 51% 54%
Pressure 30.03 in1016.9 mb 30.03 in1016.9 mb 30.01 in1016.3 mb -
Hour Temp Dew Point Humidity Winds Wind Gusts Pressure Precip Precip Rate Daily Precip Total
05:05 AM 70.1°F21.2°C 54.2°F12.3°C 57% 1.3 mph NE2.1 kmh NE 5.0 mph8.0 kmh 30.03 in1016.9 mb 0.00 in0.0 mm 0.00 in0.0 mm 0.00 in0.0 mm
05:00 AM 70.1°F21.2°C 54.2°F12.3°C 57% 0.3 mph NE0.5 kmh NE 5.0 mph8.0 kmh 30.03 in1016.9 mb 0.00 in0.0 mm 0.00 in0.0 mm 0.00 in0.0 mm
04:55 AM 70.0°F21.1°C 54.5°F12.5°C 58% Calm Calm 3.0 mph4.8 kmh 30.02 in1016.6 mb 0.00 in0.0 mm 0.00 in0.0 mm 0.00 in0.0 mm
04:50 AM 69.8°F21.0°C 54.8°F12.7°C 59% Calm Calm 3.0 mph4.8 kmh 30.03 in1016.9 mb 0.00 in0.0 mm 0.00 in0.0 mm 0.00 in0.0 mm
04:45 AM 69.9°F21.1°C 54.9°F12.7°C 59% Calm Calm 3.0 mph4.8 kmh 30.03 in1016.9 mb 0.00 in0.0 mm 0.00 in0.0 mm 0.00 in0.0 mm
04:40 AM 70.0°F21.1°C 55.5°F13.1°C 60% Calm Calm -- 30.02 in1016.6 mb 0.00 in0.0 mm 0.00 in0.0 mm 0.00 in0.0 mm
04:35 AM 70.1°F21.2°C 55.6°F13.1°C 60% Calm Calm -- 30.02 in1016.6 mb 0.00 in0.0 mm 0.00 in0.0 mm 0.00 in0.0 mm
04:30 AM 70.3°F21.3°C 55.3°F12.9°C 59% Calm Calm -- 30.02 in1016.6 mb 0.00 in0.0 mm 0.00 in0.0 mm 0.00 in0.0 mm
04:25 AM 70.4°F21.3°C 54.9°F12.7°C 58% Calm Calm -- 30.02 in1016.6 mb 0.00 in0.0 mm 0.00 in0.0 mm 0.00 in0.0 mm
04:20 AM 70.4°F21.3°C 54.4°F12.4°C 57% Calm Calm -- 30.02 in1016.6 mb 0.00 in0.0 mm 0.00 in0.0 mm 0.00 in0.0 mm
04:15 AM 70.5°F21.4°C 54.0°F12.2°C 56% Calm Calm -- 30.02 in1016.6 mb 0.00 in0.0 mm 0.00 in0.0 mm 0.00 in0.0 mm
04:10 AM 70.6°F21.4°C 54.1°F12.3°C 56% Calm Calm -- 30.02 in1016.6 mb 0.00 in0.0 mm 0.00 in0.0 mm 0.00 in0.0 mm
04:05 AM 70.8°F21.6°C 53.8°F12.1°C 55% Calm Calm -- 30.02 in1016.6 mb 0.00 in0.0 mm 0.00 in0.0 mm 0.00 in0.0 mm
04:00 AM 70.8°F21.6°C 53.8°F12.1°C 55% Calm Calm -- 30.02 in1016.6 mb 0.00 in0.0 mm 0.00 in0.0 mm 0.00 in0.0 mm
03:55 AM 70.7°F21.5°C 54.2°F12.3°C 56% 0.1 mph NNE0.2 kmh NNE 1.0 mph1.6 kmh 30.02 in1016.6 mb 0.00 in0.0 mm 0.00 in0.0 mm 0.00 in0.0 mm
03:50 AM 70.5°F21.4°C 54.0°F12.2°C 56% 0.2 mph NNE0.3 kmh NNE 3.0 mph4.8 kmh 30.02 in1016.6 mb 0.00 in0.0 mm 0.00 in0.0 mm 0.00 in0.0 mm
03:45 AM 70.6°F21.4°C 54.1°F12.3°C 56% 0.4 mph NE0.6 kmh NE 3.0 mph4.8 kmh 30.02 in1016.6 mb 0.00 in0.0 mm 0.00 in0.0 mm 0.00 in0.0 mm
03:40 AM 70.7°F21.5°C 54.2°F12.3°C 56% 1.0 mph NE1.6 kmh NE 3.0 mph4.8 kmh 30.02 in1016.6 mb 0.00 in0.0 mm 0.00 in0.0 mm 0.00 in0.0 mm
03:35 AM 70.7°F21.5°C 54.2°F12.3°C 56% 2.2 mph NE3.5 kmh NE 4.0 mph6.4 kmh 30.02 in1016.6 mb 0.00 in0.0 mm 0.00 in0.0 mm 0.00 in0.0 mm
03:30 AM 70.8°F21.6°C 54.3°F12.4°C 56% 2.5 mph NE4.0 kmh NE 6.0 mph9.7 kmh 30.02 in1016.6 mb 0.00 in0.0 mm 0.00 in0.0 mm 0.00 in0.0 mm
03:25 AM 70.9°F21.6°C 54.4°F12.4°C 56% 1.3 mph NE2.1 kmh NE 6.0 mph9.7 kmh 30.02 in1016.6 mb 0.00 in0.0 mm 0.00 in0.0 mm 0.00 in0.0 mm
03:20 AM 71.0°F21.7°C 54.0°F12.2°C 55% 0.2 mph NE0.3 kmh NE 5.0 mph8.0 kmh 30.02 in1016.6 mb 0.00 in0.0 mm 0.00 in0.0 mm 0.00 in0.0 mm
03:15 AM 71.3°F21.8°C 54.3°F12.4°C 55% 0.1 mph 0.2 kmh -- 30.02 in1016.6 mb 0.00 in0.0 mm 0.00 in0.0 mm 0.00 in0.0 mm
03:10 AM 71.1°F21.7°C 54.6°F12.6°C 56% 0.6 mph 1.0 kmh -- 30.02 in1016.6 mb 0.00 in0.0 mm 0.00 in0.0 mm 0.00 in0.0 mm
03:05 AM 71.1°F21.7°C 54.1°F12.3°C 55% 1.5 mph NNE2.4 kmh NNE 3.0 mph4.8 kmh 30.02 in1016.6 mb 0.00 in0.0 mm 0.00 in0.0 mm 0.00 in0.0 mm
03:00 AM 71.3°F21.8°C 54.3°F12.4°C 55% 2.0 mph NNE3.2 kmh NNE 3.0 mph4.8 kmh 30.02 in1016.6 mb 0.00 in0.0 mm 0.00 in0.0 mm 0.00 in0.0 mm
02:55 AM 71.3°F21.8°C 54.3°F12.4°C 55% 2.1 mph NE3.4 kmh NE 3.0 mph4.8 kmh 30.02 in1016.6 mb 0.00 in0.0 mm 0.00 in0.0 mm 0.00 in0.0 mm
02:50 AM 71.2°F21.8°C 54.2°F12.3°C 55% 2.6 mph NE4.2 kmh NE 5.0 mph8.0 kmh 30.02 in1016.6 mb 0.00 in0.0 mm 0.00 in0.0 mm 0.00 in0.0 mm
02:45 AM 71.4°F21.9°C 54.4°F12.4°C 55% 3.0 mph NE4.8 kmh NE 6.0 mph9.7 kmh 30.02 in1016.6 mb 0.00 in0.0 mm 0.00 in0.0 mm 0.00 in0.0 mm
02:40 AM 71.6°F22.0°C 54.1°F12.3°C 54% 3.0 mph NE4.8 kmh NE 7.0 mph11.3 kmh 30.02 in1016.6 mb 0.00 in0.0 mm 0.00 in0.0 mm 0.00 in0.0 mm
02:35 AM 72.1°F22.3°C 54.0°F12.2°C 53% 2.8 mph NE4.5 kmh NE 7.0 mph11.3 kmh 30.02 in1016.6 mb 0.00 in0.0 mm 0.00 in0.0 mm 0.00 in0.0 mm
02:30 AM 72.4°F22.4°C 54.3°F12.4°C 53% 2.8 mph NE4.5 kmh NE 6.0 mph9.7 kmh 30.01 in1016.3 mb 0.00 in0.0 mm 0.00 in0.0 mm 0.00 in0.0 mm
02:25 AM 72.2°F22.3°C 54.1°F12.3°C 53% 2.9 mph NE4.7 kmh NE 6.0 mph9.7 kmh 30.02 in1016.6 mb 0.00 in0.0 mm 0.00 in0.0 mm 0.00 in0.0 mm
02:20 AM 72.1°F22.3°C 54.5°F12.5°C 54% 2.2 mph NE3.5 kmh NE 6.0 mph9.7 kmh 30.02 in1016.6 mb 0.00 in0.0 mm 0.00 in0.0 mm 0.00 in0.0 mm
02:15 AM 72.2°F22.3°C 54.6°F12.6°C 54% 0.8 mph NE1.3 kmh NE 6.0 mph9.7 kmh 30.02 in1016.6 mb 0.00 in0.0 mm 0.00 in0.0 mm 0.00 in0.0 mm
02:10 AM 72.4°F22.4°C 54.8°F12.7°C 54% Calm Calm 4.0 mph6.4 kmh 30.02 in1016.6 mb 0.00 in0.0 mm 0.00 in0.0 mm 0.00 in0.0 mm
02:05 AM 72.6°F22.6°C 54.5°F12.5°C 53% Calm Calm -- 30.02 in1016.6 mb 0.00 in0.0 mm 0.00 in0.0 mm 0.00 in0.0 mm
02:00 AM 72.7°F22.6°C 54.6°F12.6°C 53% Calm Calm -- 30.02 in1016.6 mb 0.00 in0.0 mm 0.00 in0.0 mm 0.00 in0.0 mm
01:55 AM 72.8°F22.7°C 54.7°F12.6°C 53% 0.5 mph 0.8 kmh -- 30.02 in1016.6 mb 0.00 in0.0 mm 0.00 in0.0 mm 0.00 in0.0 mm
01:50 AM 72.9°F22.7°C 54.8°F12.7°C 53% 0.9 mph NE1.4 kmh NE 3.0 mph4.8 kmh 30.02 in1016.6 mb 0.00 in0.0 mm 0.00 in0.0 mm 0.00 in0.0 mm
01:45 AM 73.0°F22.8°C 54.9°F12.7°C 53% 0.4 mph NE0.6 kmh NE 4.0 mph6.4 kmh 30.02 in1016.6 mb 0.00 in0.0 mm 0.00 in0.0 mm 0.00 in0.0 mm
01:40 AM 73.3°F22.9°C 54.6°F12.6°C 52% Calm Calm 4.0 mph6.4 kmh 30.02 in1016.6 mb 0.00 in0.0 mm 0.00 in0.0 mm 0.00 in0.0 mm
01:35 AM 73.5°F23.1°C 54.8°F12.7°C 52% 0.1 mph 0.2 kmh -- 30.02 in1016.6 mb 0.00 in0.0 mm 0.00 in0.0 mm 0.00 in0.0 mm
01:30 AM 73.3°F22.9°C 54.6°F12.6°C 52% 0.8 mph 1.3 kmh -- 30.02 in1016.6 mb 0.00 in0.0 mm 0.00 in0.0 mm 0.00 in0.0 mm
01:25 AM 73.2°F22.9°C 54.5°F12.5°C 52% 1.8 mph NE2.9 kmh NE 3.0 mph4.8 kmh 30.02 in1016.6 mb 0.00 in0.0 mm 0.00 in0.0 mm 0.00 in0.0 mm
01:20 AM 73.2°F22.9°C 55.0°F12.8°C 53% 2.3 mph NE3.7 kmh NE 6.0 mph9.7 kmh 30.02 in1016.6 mb 0.00 in0.0 mm 0.00 in0.0 mm 0.00 in0.0 mm
01:15 AM 73.2°F22.9°C 54.5°F12.5°C 52% 2.7 mph NE4.3 kmh NE 6.0 mph9.7 kmh 30.02 in1016.6 mb 0.00 in0.0 mm 0.00 in0.0 mm 0.00 in0.0 mm
01:10 AM 73.5°F23.1°C 54.8°F12.7°C 52% 3.0 mph NE4.8 kmh NE 6.0 mph9.7 kmh 30.02 in1016.6 mb 0.00 in0.0 mm 0.00 in0.0 mm 0.00 in0.0 mm
01:05 AM 73.7°F23.2°C 54.4°F12.4°C 51% 2.8 mph NE4.5 kmh NE 6.0 mph9.7 kmh 30.02 in1016.6 mb 0.00 in0.0 mm 0.00 in0.0 mm 0.00 in0.0 mm
01:00 AM 73.7°F23.2°C 54.4°F12.4°C 51% 2.3 mph NE3.7 kmh NE 5.0 mph8.0 kmh 30.02 in1016.6 mb 0.00 in0.0 mm 0.00 in0.0 mm 0.00 in0.0 mm
12:55 AM 73.7°F23.2°C 55.0°F12.8°C 52% 2.0 mph NE3.2 kmh NE 5.0 mph8.0 kmh 30.02 in1016.6 mb 0.00 in0.0 mm 0.00 in0.0 mm 0.00 in0.0 mm
12:50 AM 73.8°F23.2°C 55.1°F12.8°C 52% 2.4 mph NNE3.9 kmh NNE 4.0 mph6.4 kmh 30.02 in1016.6 mb 0.00 in0.0 mm 0.00 in0.0 mm 0.00 in0.0 mm
12:45 AM 74.0°F23.3°C 54.7°F12.6°C 51% 2.9 mph NE4.7 kmh NE 4.0 mph6.4 kmh 30.02 in1016.6 mb 0.00 in0.0 mm 0.00 in0.0 mm 0.00 in0.0 mm
12:40 AM 74.0°F23.3°C 54.7°F12.6°C 51% 2.8 mph NE4.5 kmh NE 5.0 mph8.0 kmh 30.02 in1016.6 mb 0.00 in0.0 mm 0.00 in0.0 mm 0.00 in0.0 mm
12:35 AM 74.0°F23.3°C 54.7°F12.6°C 51% 2.0 mph NE3.2 kmh NE 5.0 mph8.0 kmh 30.02 in1016.6 mb 0.00 in0.0 mm 0.00 in0.0 mm 0.00 in0.0 mm
12:30 AM 74.0°F23.3°C 55.3°F12.9°C 52% 1.1 mph NE1.8 kmh NE 6.0 mph9.7 kmh 30.02 in1016.6 mb 0.00 in0.0 mm 0.00 in0.0 mm 0.00 in0.0 mm
12:25 AM 74.1°F23.4°C 55.3°F12.9°C 52% 1.5 mph NE2.4 kmh NE 6.0 mph9.7 kmh 30.02 in1016.6 mb 0.00 in0.0 mm 0.00 in0.0 mm 0.00 in0.0 mm
12:20 AM 74.1°F23.4°C 55.3°F12.9°C 52% 2.0 mph NE3.2 kmh NE 3.0 mph4.8 kmh 30.02 in1016.6 mb 0.00 in0.0 mm 0.00 in0.0 mm 0.00 in0.0 mm
12:15 AM 74.2°F23.4°C 55.4°F13.0°C 52% 2.0 mph NE3.2 kmh NE 4.0 mph6.4 kmh 30.02 in1016.6 mb 0.00 in0.0 mm 0.00 in0.0 mm 0.00 in0.0 mm
12:10 AM 74.2°F23.4°C 55.4°F13.0°C 52% 2.0 mph NE3.2 kmh NE 4.0 mph6.4 kmh 30.02 in1016.6 mb 0.00 in0.0 mm 0.00 in0.0 mm 0.00 in0.0 mm
12:05 AM 74.2°F23.4°C 55.4°F13.0°C 52% 2.0 mph NE3.2 kmh NE 4.0 mph6.4 kmh 30.02 in1016.6 mb 0.00 in0.0 mm 0.00 in0.0 mm 0.00 in0.0 mm
12:00 AM 74.2°F23.4°C 55.4°F13.0°C 52% 2.1 mph NE3.4 kmh NE 4.0 mph6.4 kmh 30.02 in1016.6 mb 0.00 in0.0 mm 0.00 in0.0 mm 0.00 in0.0 mm